sensor_id;sensor_type;location;lat;lon;timestamp;P1;durP1;ratioP1;P2;durP2;ratioP2
47349;SDS011;33088;51.982;5.872;2022-10-31T00:00:50;17.52;;;11.05;;
47349;SDS011;33088;51.982;5.872;2022-10-31T00:03:16;18.58;;;10.93;;
47349;SDS011;33088;51.982;5.872;2022-10-31T00:05:43;18.45;;;11.82;;
47349;SDS011;33088;51.982;5.872;2022-10-31T00:08:12;22.52;;;13.57;;
47349;SDS011;33088;51.982;5.872;2022-10-31T00:10:38;17.15;;;11.90;;
47349;SDS011;33088;51.982;5.872;2022-10-31T00:13:05;17.13;;;11.50;;
47349;SDS011;33088;51.982;5.872;2022-10-31T00:15:32;24.40;;;12.15;;
47349;SDS011;33088;51.982;5.872;2022-10-31T00:18:04;18.77;;;11.68;;
47349;SDS011;33088;51.982;5.872;2022-10-31T00:20:31;16.73;;;11.55;;
47349;SDS011;33088;51.982;5.872;2022-10-31T00:22:58;23.60;;;13.40;;
47349;SDS011;33088;51.982;5.872;2022-10-31T00:25:25;23.65;;;14.55;;
47349;SDS011;33088;51.982;5.872;2022-10-31T00:27:51;22.02;;;14.13;;
47349;SDS011;33088;51.982;5.872;2022-10-31T00:30:18;27.13;;;14.93;;
47349;SDS011;33088;51.982;5.872;2022-10-31T00:32:43;20.30;;;13.27;;
47349;SDS011;33088;51.982;5.872;2022-10-31T00:35:09;20.38;;;12.55;;
47349;SDS011;33088;51.982;5.872;2022-10-31T00:37:35;25.38;;;14.05;;
47349;SDS011;33088;51.982;5.872;2022-10-31T00:40:00;21.20;;;13.60;;
47349;SDS011;33088;51.982;5.872;2022-10-31T00:42:26;21.15;;;13.98;;
47349;SDS011;33088;51.982;5.872;2022-10-31T00:44:52;22.85;;;13.38;;
47349;SDS011;33088;51.982;5.872;2022-10-31T00:47:19;18.20;;;13.82;;
47349;SDS011;33088;51.982;5.872;2022-10-31T00:49:45;22.58;;;13.13;;
47349;SDS011;33088;51.982;5.872;2022-10-31T00:52:11;21.88;;;13.25;;
47349;SDS011;33088;51.982;5.872;2022-10-31T00:54:36;27.30;;;13.00;;
47349;SDS011;33088;51.982;5.872;2022-10-31T00:57:02;22.42;;;13.77;;
47349;SDS011;33088;51.982;5.872;2022-10-31T00:59:28;22.40;;;14.07;;
47349;SDS011;33088;51.982;5.872;2022-10-31T01:01:54;18.67;;;13.27;;
47349;SDS011;33088;51.982;5.872;2022-10-31T01:04:20;20.10;;;12.43;;
47349;SDS011;33088;51.982;5.872;2022-10-31T01:06:45;25.65;;;14.50;;
47349;SDS011;33088;51.982;5.872;2022-10-31T01:09:11;20.77;;;13.55;;
47349;SDS011;33088;51.982;5.872;2022-10-31T01:11:37;27.80;;;15.20;;
47349;SDS011;33088;51.982;5.872;2022-10-31T01:14:05;22.65;;;14.82;;
47349;SDS011;33088;51.982;5.872;2022-10-31T01:16:31;23.20;;;15.88;;
47349;SDS011;33088;51.982;5.872;2022-10-31T01:18:57;25.83;;;14.77;;
47349;SDS011;33088;51.982;5.872;2022-10-31T01:21:26;25.33;;;15.77;;
47349;SDS011;33088;51.982;5.872;2022-10-31T01:23:56;20.80;;;15.45;;
47349;SDS011;33088;51.982;5.872;2022-10-31T01:26:23;25.67;;;14.50;;
47349;SDS011;33088;51.982;5.872;2022-10-31T01:28:55;25.50;;;14.73;;
47349;SDS011;33088;51.982;5.872;2022-10-31T01:31:27;21.95;;;13.85;;
47349;SDS011;33088;51.982;5.872;2022-10-31T01:33:54;20.63;;;14.30;;
47349;SDS011;33088;51.982;5.872;2022-10-31T01:36:22;20.35;;;13.05;;
47349;SDS011;33088;51.982;5.872;2022-10-31T01:38:50;23.40;;;12.80;;
47349;SDS011;33088;51.982;5.872;2022-10-31T01:41:18;22.10;;;12.95;;
47349;SDS011;33088;51.982;5.872;2022-10-31T01:43:52;19.73;;;13.68;;
47349;SDS011;33088;51.982;5.872;2022-10-31T01:49:33;19.88;;;13.27;;
47349;SDS011;33088;51.982;5.872;2022-10-31T01:52:07;23.75;;;13.55;;
47349;SDS011;33088;51.982;5.872;2022-10-31T01:54:53;26.40;;;15.73;;
47349;SDS011;33088;51.982;5.872;2022-10-31T01:57:28;22.88;;;14.20;;
47349;SDS011;33088;51.982;5.872;2022-10-31T01:59:58;24.73;;;15.55;;
47349;SDS011;33088;51.982;5.872;2022-10-31T02:02:27;19.90;;;13.27;;
47349;SDS011;33088;51.982;5.872;2022-10-31T02:04:55;18.85;;;14.18;;
47349;SDS011;33088;51.982;5.872;2022-10-31T02:07:27;23.90;;;14.52;;
47349;SDS011;33088;51.982;5.872;2022-10-31T02:09:57;27.98;;;14.43;;
47349;SDS011;33088;51.982;5.872;2022-10-31T02:12:25;23.08;;;15.40;;
47349;SDS011;33088;51.982;5.872;2022-10-31T02:14:55;19.05;;;13.32;;
47349;SDS011;33088;51.982;5.872;2022-10-31T02:17:21;25.83;;;15.13;;
47349;SDS011;33088;51.982;5.872;2022-10-31T02:19:54;21.90;;;14.07;;
47349;SDS011;33088;51.982;5.872;2022-10-31T02:22:26;22.40;;;14.48;;
47349;SDS011;33088;51.982;5.872;2022-10-31T02:24:58;24.80;;;15.38;;
47349;SDS011;33088;51.982;5.872;2022-10-31T02:30:37;22.02;;;14.38;;
47349;SDS011;33088;51.982;5.872;2022-10-31T02:33:24;29.48;;;16.67;;
47349;SDS011;33088;51.982;5.872;2022-10-31T02:36:13;26.88;;;15.93;;
47349;SDS011;33088;51.982;5.872;2022-10-31T02:47:08;28.95;;;15.48;;
47349;SDS011;33088;51.982;5.872;2022-10-31T02:52:18;26.83;;;15.75;;
47349;SDS011;33088;51.982;5.872;2022-10-31T02:54:46;25.13;;;14.57;;
47349;SDS011;33088;51.982;5.872;2022-10-31T02:57:13;24.17;;;15.00;;
47349;SDS011;33088;51.982;5.872;2022-10-31T02:59:49;18.92;;;13.55;;
47349;SDS011;33088;51.982;5.872;2022-10-31T03:08:00;19.77;;;14.38;;
47349;SDS011;33088;51.982;5.872;2022-10-31T03:13:24;26.35;;;15.43;;
47349;SDS011;33088;51.982;5.872;2022-10-31T03:16:23;20.90;;;14.80;;
47349;SDS011;33088;51.982;5.872;2022-10-31T03:21:42;21.67;;;13.98;;
47349;SDS011;33088;51.982;5.872;2022-10-31T03:24:15;26.80;;;14.90;;
47349;SDS011;33088;51.982;5.872;2022-10-31T03:26:43;25.50;;;16.05;;
47349;SDS011;33088;51.982;5.872;2022-10-31T03:29:13;26.70;;;15.38;;
47349;SDS011;33088;51.982;5.872;2022-10-31T03:34:28;24.75;;;15.48;;
47349;SDS011;33088;51.982;5.872;2022-10-31T03:36:57;21.85;;;15.27;;
47349;SDS011;33088;51.982;5.872;2022-10-31T03:39:25;24.48;;;15.93;;
47349;SDS011;33088;51.982;5.872;2022-10-31T03:42:26;24.13;;;14.20;;
47349;SDS011;33088;51.982;5.872;2022-10-31T03:47:32;29.70;;;15.35;;
47349;SDS011;33088;51.982;5.872;2022-10-31T03:49:59;29.67;;;16.92;;
47349;SDS011;33088;51.982;5.872;2022-10-31T03:52:26;30.50;;;16.33;;
47349;SDS011;33088;51.982;5.872;2022-10-31T03:55:00;27.58;;;15.55;;
47349;SDS011;33088;51.982;5.872;2022-10-31T03:57:34;26.98;;;16.20;;
47349;SDS011;33088;51.982;5.872;2022-10-31T04:00:13;24.23;;;15.05;;
47349;SDS011;33088;51.982;5.872;2022-10-31T04:02:46;24.27;;;14.98;;
47349;SDS011;33088;51.982;5.872;2022-10-31T04:05:16;30.80;;;15.38;;
47349;SDS011;33088;51.982;5.872;2022-10-31T04:07:44;29.02;;;17.08;;
47349;SDS011;33088;51.982;5.872;2022-10-31T04:10:15;23.25;;;14.90;;
47349;SDS011;33088;51.982;5.872;2022-10-31T04:12:43;33.80;;;16.55;;
47349;SDS011;33088;51.982;5.872;2022-10-31T04:15:18;35.15;;;20.45;;
47349;SDS011;33088;51.982;5.872;2022-10-31T04:17:45;33.25;;;18.02;;
47349;SDS011;33088;51.982;5.872;2022-10-31T04:20:16;34.53;;;20.83;;
47349;SDS011;33088;51.982;5.872;2022-10-31T04:22:43;29.95;;;16.67;;
47349;SDS011;33088;51.982;5.872;2022-10-31T04:25:09;35.95;;;19.20;;
47349;SDS011;33088;51.982;5.872;2022-10-31T04:27:36;25.70;;;16.63;;
47349;SDS011;33088;51.982;5.872;2022-10-31T04:30:02;36.13;;;20.35;;
47349;SDS011;33088;51.982;5.872;2022-10-31T04:32:31;32.75;;;18.73;;
47349;SDS011;33088;51.982;5.872;2022-10-31T04:34:57;33.08;;;20.98;;
47349;SDS011;33088;51.982;5.872;2022-10-31T04:37:23;40.85;;;20.58;;
47349;SDS011;33088;51.982;5.872;2022-10-31T04:39:48;28.60;;;17.77;;
47349;SDS011;33088;51.982;5.872;2022-10-31T04:42:33;39.13;;;19.67;;
47349;SDS011;33088;51.982;5.872;2022-10-31T04:45:01;28.65;;;18.40;;
47349;SDS011;33088;51.982;5.872;2022-10-31T04:47:30;35.92;;;20.02;;
47349;SDS011;33088;51.982;5.872;2022-10-31T04:49:59;27.85;;;17.77;;
47349;SDS011;33088;51.982;5.872;2022-10-31T04:52:25;28.63;;;18.65;;
47349;SDS011;33088;51.982;5.872;2022-10-31T04:54:51;37.60;;;20.40;;
47349;SDS011;33088;51.982;5.872;2022-10-31T04:57:40;29.27;;;19.83;;
47349;SDS011;33088;51.982;5.872;2022-10-31T05:00:07;31.92;;;18.27;;
47349;SDS011;33088;51.982;5.872;2022-10-31T05:02:33;33.55;;;18.10;;
47349;SDS011;33088;51.982;5.872;2022-10-31T05:04:59;27.50;;;18.77;;
47349;SDS011;33088;51.982;5.872;2022-10-31T05:07:25;28.90;;;19.40;;
47349;SDS011;33088;51.982;5.872;2022-10-31T05:09:51;26.45;;;18.67;;
47349;SDS011;33088;51.982;5.872;2022-10-31T05:12:18;44.35;;;23.77;;
47349;SDS011;33088;51.982;5.872;2022-10-31T05:15:02;44.40;;;22.15;;
47349;SDS011;33088;51.982;5.872;2022-10-31T05:17:48;27.63;;;19.88;;
47349;SDS011;33088;51.982;5.872;2022-10-31T05:20:50;33.78;;;18.67;;
47349;SDS011;33088;51.982;5.872;2022-10-31T05:23:25;42.83;;;24.08;;
47349;SDS011;33088;51.982;5.872;2022-10-31T05:25:51;37.08;;;23.38;;
47349;SDS011;33088;51.982;5.872;2022-10-31T05:28:17;39.00;;;24.00;;
47349;SDS011;33088;51.982;5.872;2022-10-31T05:30:43;48.60;;;25.05;;
47349;SDS011;33088;51.982;5.872;2022-10-31T05:33:12;45.95;;;26.05;;
47349;SDS011;33088;51.982;5.872;2022-10-31T05:35:49;40.22;;;23.45;;
47349;SDS011;33088;51.982;5.872;2022-10-31T05:38:53;38.83;;;22.45;;
47349;SDS011;33088;51.982;5.872;2022-10-31T05:41:22;39.67;;;23.58;;
47349;SDS011;33088;51.982;5.872;2022-10-31T05:43:48;49.38;;;24.52;;
47349;SDS011;33088;51.982;5.872;2022-10-31T05:46:17;57.03;;;28.70;;
47349;SDS011;33088;51.982;5.872;2022-10-31T05:49:01;42.00;;;24.30;;
47349;SDS011;33088;51.982;5.872;2022-10-31T05:51:45;42.00;;;26.13;;
47349;SDS011;33088;51.982;5.872;2022-10-31T05:54:11;42.22;;;24.05;;
47349;SDS011;33088;51.982;5.872;2022-10-31T05:56:38;36.30;;;21.98;;
47349;SDS011;33088;51.982;5.872;2022-10-31T05:59:04;38.28;;;22.13;;
47349;SDS011;33088;51.982;5.872;2022-10-31T06:01:29;48.70;;;25.60;;
47349;SDS011;33088;51.982;5.872;2022-10-31T06:03:59;41.40;;;23.85;;
47349;SDS011;33088;51.982;5.872;2022-10-31T06:06:25;33.10;;;21.65;;
47349;SDS011;33088;51.982;5.872;2022-10-31T06:08:51;40.90;;;22.92;;
47349;SDS011;33088;51.982;5.872;2022-10-31T06:11:19;30.80;;;20.05;;
47349;SDS011;33088;51.982;5.872;2022-10-31T06:14:00;38.35;;;22.30;;
47349;SDS011;33088;51.982;5.872;2022-10-31T06:16:33;37.53;;;21.10;;
47349;SDS011;33088;51.982;5.872;2022-10-31T06:19:15;34.83;;;22.65;;
47349;SDS011;33088;51.982;5.872;2022-10-31T06:21:41;32.95;;;21.08;;
47349;SDS011;33088;51.982;5.872;2022-10-31T06:24:06;34.03;;;21.30;;
47349;SDS011;33088;51.982;5.872;2022-10-31T06:27:07;36.53;;;20.80;;
47349;SDS011;33088;51.982;5.872;2022-10-31T06:29:33;34.60;;;21.30;;
47349;SDS011;33088;51.982;5.872;2022-10-31T06:32:09;36.85;;;21.83;;
47349;SDS011;33088;51.982;5.872;2022-10-31T06:34:39;42.75;;;22.92;;
47349;SDS011;33088;51.982;5.872;2022-10-31T06:37:07;36.72;;;22.05;;
47349;SDS011;33088;51.982;5.872;2022-10-31T06:39:33;35.78;;;21.92;;
47349;SDS011;33088;51.982;5.872;2022-10-31T06:41:59;41.40;;;23.48;;
47349;SDS011;33088;51.982;5.872;2022-10-31T06:44:26;30.05;;;20.75;;
47349;SDS011;33088;51.982;5.872;2022-10-31T06:46:54;37.80;;;21.63;;
47349;SDS011;33088;51.982;5.872;2022-10-31T06:49:38;40.03;;;23.65;;
47349;SDS011;33088;51.982;5.872;2022-10-31T06:54:36;40.53;;;22.67;;
47349;SDS011;33088;51.982;5.872;2022-10-31T06:57:02;39.67;;;22.48;;
47349;SDS011;33088;51.982;5.872;2022-10-31T06:59:28;44.30;;;24.02;;
47349;SDS011;33088;51.982;5.872;2022-10-31T07:02:12;36.80;;;23.17;;
47349;SDS011;33088;51.982;5.872;2022-10-31T07:04:40;38.80;;;25.05;;
47349;SDS011;33088;51.982;5.872;2022-10-31T07:07:07;46.92;;;27.40;;
47349;SDS011;33088;51.982;5.872;2022-10-31T07:09:34;49.20;;;28.42;;
47349;SDS011;33088;51.982;5.872;2022-10-31T07:12:02;43.00;;;25.75;;
47349;SDS011;33088;51.982;5.872;2022-10-31T07:14:29;40.90;;;22.80;;
47349;SDS011;33088;51.982;5.872;2022-10-31T07:16:55;45.95;;;26.33;;
47349;SDS011;33088;51.982;5.872;2022-10-31T07:19:27;43.33;;;25.00;;
47349;SDS011;33088;51.982;5.872;2022-10-31T07:21:53;48.42;;;27.52;;
47349;SDS011;33088;51.982;5.872;2022-10-31T07:24:18;52.75;;;27.92;;
47349;SDS011;33088;51.982;5.872;2022-10-31T07:27:10;59.45;;;30.85;;
47349;SDS011;33088;51.982;5.872;2022-10-31T07:29:36;49.35;;;28.35;;
47349;SDS011;33088;51.982;5.872;2022-10-31T07:32:03;54.88;;;29.48;;
47349;SDS011;33088;51.982;5.872;2022-10-31T07:34:29;58.35;;;31.20;;
47349;SDS011;33088;51.982;5.872;2022-10-31T07:37:10;50.20;;;29.90;;
47349;SDS011;33088;51.982;5.872;2022-10-31T07:39:36;60.10;;;31.80;;
47349;SDS011;33088;51.982;5.872;2022-10-31T07:42:02;65.70;;;33.22;;
47349;SDS011;33088;51.982;5.872;2022-10-31T07:44:29;55.08;;;32.22;;
47349;SDS011;33088;51.982;5.872;2022-10-31T07:47:13;56.35;;;32.13;;
47349;SDS011;33088;51.982;5.872;2022-10-31T07:50:08;56.83;;;31.88;;
47349;SDS011;33088;51.982;5.872;2022-10-31T07:53:08;59.17;;;33.65;;
47349;SDS011;33088;51.982;5.872;2022-10-31T07:55:37;64.13;;;33.92;;
47349;SDS011;33088;51.982;5.872;2022-10-31T07:58:12;68.47;;;33.58;;
47349;SDS011;33088;51.982;5.872;2022-10-31T08:00:40;57.55;;;30.33;;
47349;SDS011;33088;51.982;5.872;2022-10-31T08:03:11;46.75;;;27.92;;
47349;SDS011;33088;51.982;5.872;2022-10-31T08:05:57;48.63;;;27.92;;
47349;SDS011;33088;51.982;5.872;2022-10-31T08:08:43;45.17;;;26.80;;
47349;SDS011;33088;51.982;5.872;2022-10-31T08:11:08;51.00;;;27.88;;
47349;SDS011;33088;51.982;5.872;2022-10-31T08:13:34;48.28;;;28.50;;
47349;SDS011;33088;51.982;5.872;2022-10-31T08:16:00;42.53;;;27.02;;
47349;SDS011;33088;51.982;5.872;2022-10-31T08:18:30;46.95;;;28.23;;
47349;SDS011;33088;51.982;5.872;2022-10-31T08:20:57;49.47;;;27.73;;
47349;SDS011;33088;51.982;5.872;2022-10-31T08:23:22;48.28;;;28.42;;
47349;SDS011;33088;51.982;5.872;2022-10-31T08:25:48;45.10;;;25.90;;
47349;SDS011;33088;51.982;5.872;2022-10-31T08:28:14;45.33;;;26.80;;
47349;SDS011;33088;51.982;5.872;2022-10-31T08:30:42;46.25;;;28.08;;
47349;SDS011;33088;51.982;5.872;2022-10-31T08:33:27;50.95;;;28.80;;
47349;SDS011;33088;51.982;5.872;2022-10-31T08:36:11;56.50;;;29.77;;
47349;SDS011;33088;51.982;5.872;2022-10-31T08:39:00;47.88;;;28.27;;
47349;SDS011;33088;51.982;5.872;2022-10-31T08:41:26;54.10;;;30.98;;
47349;SDS011;33088;51.982;5.872;2022-10-31T08:43:52;46.05;;;30.25;;
47349;SDS011;33088;51.982;5.872;2022-10-31T08:46:18;60.60;;;35.25;;
47349;SDS011;33088;51.982;5.872;2022-10-31T08:48:43;62.53;;;36.60;;
47349;SDS011;33088;51.982;5.872;2022-10-31T08:51:09;56.45;;;36.22;;
47349;SDS011;33088;51.982;5.872;2022-10-31T08:53:36;59.08;;;36.15;;
47349;SDS011;33088;51.982;5.872;2022-10-31T08:56:20;53.72;;;34.30;;
47349;SDS011;33088;51.982;5.872;2022-10-31T08:58:47;58.85;;;34.38;;
47349;SDS011;33088;51.982;5.872;2022-10-31T09:01:13;52.15;;;31.98;;
47349;SDS011;33088;51.982;5.872;2022-10-31T09:03:41;43.28;;;28.77;;
47349;SDS011;33088;51.982;5.872;2022-10-31T09:06:07;44.58;;;28.55;;
47349;SDS011;33088;51.982;5.872;2022-10-31T09:08:35;43.83;;;26.05;;
47349;SDS011;33088;51.982;5.872;2022-10-31T09:11:01;41.28;;;25.90;;
47349;SDS011;33088;51.982;5.872;2022-10-31T09:14:00;38.47;;;25.23;;
47349;SDS011;33088;51.982;5.872;2022-10-31T09:16:52;36.38;;;23.23;;
47349;SDS011;33088;51.982;5.872;2022-10-31T09:19:22;39.42;;;22.77;;
47349;SDS011;33088;51.982;5.872;2022-10-31T09:21:47;36.60;;;23.85;;
47349;SDS011;33088;51.982;5.872;2022-10-31T09:24:16;34.97;;;22.33;;
47349;SDS011;33088;51.982;5.872;2022-10-31T09:26:42;34.22;;;22.45;;
47349;SDS011;33088;51.982;5.872;2022-10-31T09:29:22;31.48;;;21.35;;
47349;SDS011;33088;51.982;5.872;2022-10-31T09:31:55;31.35;;;21.00;;
47349;SDS011;33088;51.982;5.872;2022-10-31T09:34:25;36.35;;;20.55;;
47349;SDS011;33088;51.982;5.872;2022-10-31T09:37:01;29.55;;;19.38;;
47349;SDS011;33088;51.982;5.872;2022-10-31T09:39:27;30.02;;;19.00;;
47349;SDS011;33088;51.982;5.872;2022-10-31T09:42:04;32.83;;;18.77;;
47349;SDS011;33088;51.982;5.872;2022-10-31T09:54:15;25.23;;;15.88;;
47349;SDS011;33088;51.982;5.872;2022-10-31T09:56:21;17.35;;;13.05;;
47349;SDS011;33088;51.982;5.872;2022-10-31T09:58:56;31.75;;;17.08;;
47349;SDS011;33088;51.982;5.872;2022-10-31T10:07:01;32.78;;;16.60;;
47349;SDS011;33088;51.982;5.872;2022-10-31T10:09:50;27.83;;;18.13;;
47349;SDS011;33088;51.982;5.872;2022-10-31T10:15:45;30.75;;;17.35;;
47349;SDS011;33088;51.982;5.872;2022-10-31T10:18:38;31.60;;;17.70;;
47349;SDS011;33088;51.982;5.872;2022-10-31T10:21:12;30.35;;;19.67;;
47349;SDS011;33088;51.982;5.872;2022-10-31T10:23:51;42.42;;;21.90;;
47349;SDS011;33088;51.982;5.872;2022-10-31T10:26:33;38.60;;;21.45;;
47349;SDS011;33088;51.982;5.872;2022-10-31T10:29:03;34.70;;;20.77;;
47349;SDS011;33088;51.982;5.872;2022-10-31T10:31:41;38.80;;;22.48;;
47349;SDS011;33088;51.982;5.872;2022-10-31T10:36:43;36.05;;;21.45;;
47349;SDS011;33088;51.982;5.872;2022-10-31T10:39:27;33.40;;;20.88;;
47349;SDS011;33088;51.982;5.872;2022-10-31T10:41:59;35.38;;;20.63;;
47349;SDS011;33088;51.982;5.872;2022-10-31T10:44:45;39.10;;;22.88;;
47349;SDS011;33088;51.982;5.872;2022-10-31T10:47:36;37.30;;;21.80;;
47349;SDS011;33088;51.982;5.872;2022-10-31T10:50:27;34.35;;;21.25;;
47349;SDS011;33088;51.982;5.872;2022-10-31T10:53:02;37.63;;;21.77;;
47349;SDS011;33088;51.982;5.872;2022-10-31T10:58:49;35.00;;;18.45;;
47349;SDS011;33088;51.982;5.872;2022-10-31T11:01:15;33.55;;;19.77;;
47349;SDS011;33088;51.982;5.872;2022-10-31T11:03:41;32.83;;;18.10;;
47349;SDS011;33088;51.982;5.872;2022-10-31T11:06:17;31.58;;;18.10;;
47349;SDS011;33088;51.982;5.872;2022-10-31T11:08:50;33.10;;;17.98;;
47349;SDS011;33088;51.982;5.872;2022-10-31T11:13:44;30.67;;;16.75;;
47349;SDS011;33088;51.982;5.872;2022-10-31T11:16:12;31.40;;;16.55;;
47349;SDS011;33088;51.982;5.872;2022-10-31T11:18:51;29.00;;;16.70;;
47349;SDS011;33088;51.982;5.872;2022-10-31T11:21:25;31.42;;;16.73;;
47349;SDS011;33088;51.982;5.872;2022-10-31T11:26:34;38.78;;;18.70;;
47349;SDS011;33088;51.982;5.872;2022-10-31T11:29:03;40.72;;;20.27;;
47349;SDS011;33088;51.982;5.872;2022-10-31T11:31:30;39.90;;;22.08;;
47349;SDS011;33088;51.982;5.872;2022-10-31T11:34:04;39.42;;;21.17;;
47349;SDS011;33088;51.982;5.872;2022-10-31T11:36:37;35.67;;;19.30;;
47349;SDS011;33088;51.982;5.872;2022-10-31T11:39:13;42.20;;;22.13;;
47349;SDS011;33088;51.982;5.872;2022-10-31T11:41:44;41.53;;;22.50;;
47349;SDS011;33088;51.982;5.872;2022-10-31T11:44:12;37.30;;;21.02;;
47349;SDS011;33088;51.982;5.872;2022-10-31T11:46:45;35.88;;;20.48;;
47349;SDS011;33088;51.982;5.872;2022-10-31T11:49:20;36.53;;;21.42;;
47349;SDS011;33088;51.982;5.872;2022-10-31T11:51:58;42.17;;;22.45;;
47349;SDS011;33088;51.982;5.872;2022-10-31T11:54:34;41.95;;;21.48;;
47349;SDS011;33088;51.982;5.872;2022-10-31T11:57:21;37.15;;;20.55;;
47349;SDS011;33088;51.982;5.872;2022-10-31T11:59:50;35.40;;;20.63;;
47349;SDS011;33088;51.982;5.872;2022-10-31T12:02:21;38.38;;;20.90;;
47349;SDS011;33088;51.982;5.872;2022-10-31T12:04:49;36.67;;;21.10;;
47349;SDS011;33088;51.982;5.872;2022-10-31T12:07:22;34.83;;;20.77;;
47349;SDS011;33088;51.982;5.872;2022-10-31T12:09:48;37.75;;;21.85;;
47349;SDS011;33088;51.982;5.872;2022-10-31T12:15:42;35.42;;;20.65;;
47349;SDS011;33088;51.982;5.872;2022-10-31T12:31:20;36.45;;;21.30;;
47349;SDS011;33088;51.982;5.872;2022-10-31T12:41:47;45.30;;;23.65;;
47349;SDS011;33088;51.982;5.872;2022-10-31T12:45:03;40.00;;;22.10;;
47349;SDS011;33088;51.982;5.872;2022-10-31T12:47:53;39.30;;;23.30;;
47349;SDS011;33088;51.982;5.872;2022-10-31T12:53:38;38.42;;;20.73;;
47349;SDS011;33088;51.982;5.872;2022-10-31T12:56:12;41.80;;;22.90;;
47349;SDS011;33088;51.982;5.872;2022-10-31T12:58:56;48.65;;;22.77;;
47349;SDS011;33088;51.982;5.872;2022-10-31T13:01:48;45.00;;;25.23;;
47349;SDS011;33088;51.982;5.872;2022-10-31T13:04:20;46.22;;;23.05;;
47349;SDS011;33088;51.982;5.872;2022-10-31T13:07:05;41.72;;;22.60;;
47349;SDS011;33088;51.982;5.872;2022-10-31T13:09:40;48.30;;;23.65;;
47349;SDS011;33088;51.982;5.872;2022-10-31T13:12:28;34.55;;;20.70;;
47349;SDS011;33088;51.982;5.872;2022-10-31T13:14:59;51.63;;;24.50;;
47349;SDS011;33088;51.982;5.872;2022-10-31T13:17:33;47.60;;;24.77;;
47349;SDS011;33088;51.982;5.872;2022-10-31T13:22:42;39.10;;;23.83;;
47349;SDS011;33088;51.982;5.872;2022-10-31T13:25:14;45.00;;;24.92;;
47349;SDS011;33088;51.982;5.872;2022-10-31T13:27:48;44.37;;;23.40;;
47349;SDS011;33088;51.982;5.872;2022-10-31T13:30:24;46.90;;;22.88;;
47349;SDS011;33088;51.982;5.872;2022-10-31T13:33:13;40.15;;;23.15;;
47349;SDS011;33088;51.982;5.872;2022-10-31T13:38:53;45.13;;;22.83;;
47349;SDS011;33088;51.982;5.872;2022-10-31T13:44:23;41.33;;;22.45;;
47349;SDS011;33088;51.982;5.872;2022-10-31T13:46:55;57.45;;;22.75;;
47349;SDS011;33088;51.982;5.872;2022-10-31T13:52:04;42.20;;;22.15;;
47349;SDS011;33088;51.982;5.872;2022-10-31T13:57:14;37.17;;;20.30;;
47349;SDS011;33088;51.982;5.872;2022-10-31T13:59:45;39.30;;;23.33;;
47349;SDS011;33088;51.982;5.872;2022-10-31T14:02:25;37.65;;;19.95;;
47349;SDS011;33088;51.982;5.872;2022-10-31T14:04:56;40.97;;;21.23;;
47349;SDS011;33088;51.982;5.872;2022-10-31T14:07:29;33.97;;;19.55;;
47349;SDS011;33088;51.982;5.872;2022-10-31T14:09:57;38.92;;;21.02;;
47349;SDS011;33088;51.982;5.872;2022-10-31T14:12:43;49.38;;;21.42;;
47349;SDS011;33088;51.982;5.872;2022-10-31T14:15:18;41.22;;;21.27;;
47349;SDS011;33088;51.982;5.872;2022-10-31T14:17:52;43.63;;;21.10;;
47349;SDS011;33088;51.982;5.872;2022-10-31T14:20:32;40.20;;;21.33;;
47349;SDS011;33088;51.982;5.872;2022-10-31T14:23:30;39.60;;;20.38;;
47349;SDS011;33088;51.982;5.872;2022-10-31T14:28:48;40.65;;;20.98;;
47349;SDS011;33088;51.982;5.872;2022-10-31T14:34:22;31.83;;;20.23;;
47349;SDS011;33088;51.982;5.872;2022-10-31T14:42:17;37.50;;;20.45;;
47349;SDS011;33088;51.982;5.872;2022-10-31T14:53:00;44.17;;;21.38;;
47349;SDS011;33088;51.982;5.872;2022-10-31T14:55:28;42.88;;;21.95;;
47349;SDS011;33088;51.982;5.872;2022-10-31T14:57:56;37.15;;;21.20;;
47349;SDS011;33088;51.982;5.872;2022-10-31T15:00:25;39.58;;;20.30;;
47349;SDS011;33088;51.982;5.872;2022-10-31T15:02:59;36.35;;;21.95;;
47349;SDS011;33088;51.982;5.872;2022-10-31T15:05:53;40.65;;;19.77;;
47349;SDS011;33088;51.982;5.872;2022-10-31T15:08:29;46.30;;;22.17;;
47349;SDS011;33088;51.982;5.872;2022-10-31T15:10:56;38.67;;;21.02;;
47349;SDS011;33088;51.982;5.872;2022-10-31T15:13:21;32.63;;;19.27;;
47349;SDS011;33088;51.982;5.872;2022-10-31T15:15:48;37.58;;;20.02;;
47349;SDS011;33088;51.982;5.872;2022-10-31T15:18:16;45.17;;;20.65;;
47349;SDS011;33088;51.982;5.872;2022-10-31T15:20:45;39.53;;;19.73;;
47349;SDS011;33088;51.982;5.872;2022-10-31T15:23:11;49.97;;;22.38;;
47349;SDS011;33088;51.982;5.872;2022-10-31T15:25:47;44.10;;;22.67;;
47349;SDS011;33088;51.982;5.872;2022-10-31T15:28:16;38.85;;;22.13;;
47349;SDS011;33088;51.982;5.872;2022-10-31T15:30:55;39.92;;;20.55;;
47349;SDS011;33088;51.982;5.872;2022-10-31T15:33:23;35.53;;;20.58;;
47349;SDS011;33088;51.982;5.872;2022-10-31T15:35:58;41.90;;;21.73;;
47349;SDS011;33088;51.982;5.872;2022-10-31T15:38:25;43.40;;;22.27;;
47349;SDS011;33088;51.982;5.872;2022-10-31T15:41:03;46.22;;;21.45;;
47349;SDS011;33088;51.982;5.872;2022-10-31T15:43:35;47.97;;;23.52;;
47349;SDS011;33088;51.982;5.872;2022-10-31T15:46:06;37.78;;;21.30;;
47349;SDS011;33088;51.982;5.872;2022-10-31T15:48:33;43.05;;;22.55;;
47349;SDS011;33088;51.982;5.872;2022-10-31T15:51:00;40.20;;;22.58;;
47349;SDS011;33088;51.982;5.872;2022-10-31T15:53:30;46.20;;;22.52;;
47349;SDS011;33088;51.982;5.872;2022-10-31T15:56:04;42.15;;;22.45;;
47349;SDS011;33088;51.982;5.872;2022-10-31T15:58:33;38.95;;;21.58;;
47349;SDS011;33088;51.982;5.872;2022-10-31T16:01:19;39.75;;;21.88;;
47349;SDS011;33088;51.982;5.872;2022-10-31T16:06:37;37.75;;;21.58;;
47349;SDS011;33088;51.982;5.872;2022-10-31T16:09:03;45.53;;;23.40;;
47349;SDS011;33088;51.982;5.872;2022-10-31T16:11:47;50.00;;;25.55;;
47349;SDS011;33088;51.982;5.872;2022-10-31T16:14:21;40.42;;;22.58;;
47349;SDS011;33088;51.982;5.872;2022-10-31T16:16:50;49.03;;;21.88;;
47349;SDS011;33088;51.982;5.872;2022-10-31T16:19:20;41.47;;;22.00;;
47349;SDS011;33088;51.982;5.872;2022-10-31T16:21:47;48.90;;;22.55;;
47349;SDS011;33088;51.982;5.872;2022-10-31T16:26:51;45.15;;;23.08;;
47349;SDS011;33088;51.982;5.872;2022-10-31T16:29:27;48.58;;;22.58;;
47349;SDS011;33088;51.982;5.872;2022-10-31T16:31:58;43.78;;;21.75;;
47349;SDS011;33088;51.982;5.872;2022-10-31T16:34:24;45.78;;;24.83;;
47349;SDS011;33088;51.982;5.872;2022-10-31T16:36:50;45.65;;;22.58;;
47349;SDS011;33088;51.982;5.872;2022-10-31T16:39:16;54.10;;;23.70;;
47349;SDS011;33088;51.982;5.872;2022-10-31T16:41:46;43.17;;;22.00;;
47349;SDS011;33088;51.982;5.872;2022-10-31T16:44:18;41.13;;;22.05;;
47349;SDS011;33088;51.982;5.872;2022-10-31T16:46:47;43.95;;;22.45;;
47349;SDS011;33088;51.982;5.872;2022-10-31T16:49:12;39.83;;;20.98;;
47349;SDS011;33088;51.982;5.872;2022-10-31T16:51:40;43.45;;;22.85;;
47349;SDS011;33088;51.982;5.872;2022-10-31T16:54:06;46.85;;;23.42;;
47349;SDS011;33088;51.982;5.872;2022-10-31T16:56:34;47.75;;;23.77;;
47349;SDS011;33088;51.982;5.872;2022-10-31T16:59:02;42.22;;;23.10;;
47349;SDS011;33088;51.982;5.872;2022-10-31T17:01:31;52.80;;;24.70;;